Billings (BIL/KBIL)

Map

Destinations

Information

Location
Billings, MT
Local Time
21:38 / 9:38 pm
GMT Time
03:38 / 3:38 am
Gates
B1
No FAA reported delays
METAR KBIL 260253Z 34011KT 10SM FEW095 12/00 A2983 RMK AO2 SLP096 T01170000 53019
TAF KBIL 252320Z 2600/2624 32015G22KT P6SM VCSH FEW070 BKN100 FM260300 28009KT P6SM FEW080 BKN120 FM260600 24007KT P6SM FEW100 BKN200 FM261800 34008KT P6SM VCSH SCT050 BKN150